sensor_id;sensor_type;location;lat;lon;timestamp;pressure;altitude;pressure_sealevel;temperature;humidity
1207;BME280;593;53.184;8.216;2023-02-12T00:02:14;103263.94;;;10.42;100.00
1207;BME280;593;53.184;8.216;2023-02-12T00:04:39;103274.22;;;10.47;100.00
1207;BME280;593;53.184;8.216;2023-02-12T00:07:05;103271.06;;;10.43;100.00
1207;BME280;593;53.184;8.216;2023-02-12T00:09:30;103277.78;;;10.41;100.00
1207;BME280;593;53.184;8.216;2023-02-12T00:11:56;103282.00;;;10.37;100.00
1207;BME280;593;53.184;8.216;2023-02-12T00:14:21;103281.13;;;10.43;100.00
1207;BME280;593;53.184;8.216;2023-02-12T00:16:46;103288.44;;;10.49;100.00
1207;BME280;593;53.184;8.216;2023-02-12T00:19:12;103282.56;;;10.45;100.00
1207;BME280;593;53.184;8.216;2023-02-12T00:21:37;103281.97;;;10.43;100.00
1207;BME280;593;53.184;8.216;2023-02-12T00:24:03;103289.69;;;10.46;100.00
1207;BME280;593;53.184;8.216;2023-02-12T00:26:28;103281.13;;;10.43;100.00
1207;BME280;593;53.184;8.216;2023-02-12T00:28:54;103281.91;;;10.50;100.00
1207;BME280;593;53.184;8.216;2023-02-12T00:31:22;103281.72;;;10.51;100.00
1207;BME280;593;53.184;8.216;2023-02-12T00:33:48;103291.75;;;10.51;100.00
1207;BME280;593;53.184;8.216;2023-02-12T00:36:16;103282.75;;;10.57;100.00
1207;BME280;593;53.184;8.216;2023-02-12T00:38:42;103292.97;;;10.61;100.00
1207;BME280;593;53.184;8.216;2023-02-12T00:41:08;103285.66;;;10.55;100.00
1207;BME280;593;53.184;8.216;2023-02-12T00:43:33;103290.06;;;10.50;100.00
1207;BME280;593;53.184;8.216;2023-02-12T00:45:59;103285.69;;;10.49;100.00
1207;BME280;593;53.184;8.216;2023-02-12T00:48:24;103290.53;;;10.47;100.00
1207;BME280;593;53.184;8.216;2023-02-12T00:50:50;103298.03;;;10.51;100.00
1207;BME280;593;53.184;8.216;2023-02-12T00:53:16;103295.53;;;10.50;100.00
1207;BME280;593;53.184;8.216;2023-02-12T00:55:42;103294.88;;;10.54;100.00
1207;BME280;593;53.184;8.216;2023-02-12T00:58:07;103298.69;;;10.47;100.00
1207;BME280;593;53.184;8.216;2023-02-12T01:00:33;103304.56;;;10.44;100.00
1207;BME280;593;53.184;8.216;2023-02-12T01:02:58;103303.97;;;10.42;100.00
1207;BME280;593;53.184;8.216;2023-02-12T01:05:24;103307.47;;;10.42;100.00
1207;BME280;593;53.184;8.216;2023-02-12T01:07:50;103307.47;;;10.42;100.00
1207;BME280;593;53.184;8.216;2023-02-12T01:10:16;103306.31;;;10.32;100.00
1207;BME280;593;53.184;8.216;2023-02-12T01:12:42;103316.31;;;10.38;100.00
1207;BME280;593;53.184;8.216;2023-02-12T01:15:08;103319.44;;;10.41;100.00
1207;BME280;593;53.184;8.216;2023-02-12T01:17:36;103319.44;;;10.41;100.00
1207;BME280;593;53.184;8.216;2023-02-12T01:20:03;103319.63;;;10.40;100.00
1207;BME280;593;53.184;8.216;2023-02-12T01:22:33;103320.06;;;10.43;100.00
1207;BME280;593;53.184;8.216;2023-02-12T01:24:58;103314.19;;;10.40;100.00
1207;BME280;593;53.184;8.216;2023-02-12T01:27:23;103318.16;;;10.44;100.00
1207;BME280;593;53.184;8.216;2023-02-12T01:29:49;103325.50;;;10.43;100.00
1207;BME280;593;53.184;8.216;2023-02-12T01:32:14;103327.19;;;10.38;100.00
1207;BME280;593;53.184;8.216;2023-02-12T01:34:39;103321.13;;;10.36;100.00
1207;BME280;593;53.184;8.216;2023-02-12T01:37:05;103312.53;;;10.39;100.00
1207;BME280;593;53.184;8.216;2023-02-12T01:39:30;103309.22;;;10.37;100.00
1207;BME280;593;53.184;8.216;2023-02-12T01:41:55;103318.59;;;10.41;100.00
1207;BME280;593;53.184;8.216;2023-02-12T01:44:28;103315.88;;;10.41;100.00
1207;BME280;593;53.184;8.216;2023-02-12T01:46:56;103303.34;;;10.33;100.00
1207;BME280;593;53.184;8.216;2023-02-12T01:49:42;103312.13;;;10.42;100.00
1207;BME280;593;53.184;8.216;2023-02-12T01:52:16;103313.56;;;10.38;100.00
1207;BME280;593;53.184;8.216;2023-02-12T01:54:44;103306.06;;;10.33;100.00
1207;BME280;593;53.184;8.216;2023-02-12T01:57:13;103300.22;;;10.36;100.00
1207;BME280;593;53.184;8.216;2023-02-12T01:59:40;103294.81;;;10.29;100.00
1207;BME280;593;53.184;8.216;2023-02-12T02:02:07;103300.59;;;10.40;100.00
1207;BME280;593;53.184;8.216;2023-02-12T02:04:40;103300.59;;;10.40;100.00
1207;BME280;593;53.184;8.216;2023-02-12T02:07:07;103292.66;;;10.38;100.00
1207;BME280;593;53.184;8.216;2023-02-12T02:09:35;103297.06;;;10.32;100.00
1207;BME280;593;53.184;8.216;2023-02-12T02:12:02;103300.22;;;10.36;100.00
1207;BME280;593;53.184;8.216;2023-02-12T02:14:47;103298.31;;;10.37;100.00
1207;BME280;593;53.184;8.216;2023-02-12T02:20:29;103296.66;;;10.36;100.00
1207;BME280;593;53.184;8.216;2023-02-12T02:31:13;103301.66;;;10.39;100.00
1207;BME280;593;53.184;8.216;2023-02-12T02:36:36;103292.47;;;10.33;100.00
1207;BME280;593;53.184;8.216;2023-02-12T02:39:08;103295.81;;;10.35;100.00
1207;BME280;593;53.184;8.216;2023-02-12T02:42:07;103292.91;;;10.30;100.00
1207;BME280;593;53.184;8.216;2023-02-12T02:44:36;103291.44;;;10.27;100.00
1207;BME280;593;53.184;8.216;2023-02-12T02:47:06;103281.63;;;10.26;100.00
1207;BME280;593;53.184;8.216;2023-02-12T02:49:41;103286.19;;;10.32;100.00
1207;BME280;593;53.184;8.216;2023-02-12T02:52:15;103286.41;;;10.31;100.00
1207;BME280;593;53.184;8.216;2023-02-12T02:54:47;103292.09;;;10.29;100.00
1207;BME280;593;53.184;8.216;2023-02-12T02:57:18;103287.50;;;10.23;100.00
1207;BME280;593;53.184;8.216;2023-02-12T02:59:51;103293.34;;;10.27;100.00
1207;BME280;593;53.184;8.216;2023-02-12T03:02:26;103303.59;;;10.25;100.00
1207;BME280;593;53.184;8.216;2023-02-12T03:05:09;103292.03;;;10.36;100.00
1207;BME280;593;53.184;8.216;2023-02-12T03:08:02;103292.84;;;10.43;100.00
1207;BME280;593;53.184;8.216;2023-02-12T03:10:35;103285.69;;;10.49;100.00
1207;BME280;593;53.184;8.216;2023-02-12T03:13:09;103284.06;;;10.41;100.00
1207;BME280;593;53.184;8.216;2023-02-12T03:15:39;103275.09;;;10.34;100.00
1207;BME280;593;53.184;8.216;2023-02-12T03:18:11;103283.03;;;10.36;100.00
1207;BME280;593;53.184;8.216;2023-02-12T03:20:43;103286.97;;;10.46;100.00
1207;BME280;593;53.184;8.216;2023-02-12T03:23:13;103293.25;;;10.47;100.00
1207;BME280;593;53.184;8.216;2023-02-12T03:25:51;103286.38;;;10.44;100.00
1207;BME280;593;53.184;8.216;2023-02-12T03:28:42;103293.69;;;10.44;100.00
1207;BME280;593;53.184;8.216;2023-02-12T03:33:47;103294.88;;;10.54;100.00
1207;BME280;593;53.184;8.216;2023-02-12T03:39:14;103297.44;;;10.49;100.00
1207;BME280;593;53.184;8.216;2023-02-12T03:41:48;103277.13;;;10.45;100.00
1207;BME280;593;53.184;8.216;2023-02-12T03:50:23;103300.16;;;10.43;100.00
1207;BME280;593;53.184;8.216;2023-02-12T03:52:52;103291.81;;;10.38;100.00
1207;BME280;593;53.184;8.216;2023-02-12T03:55:17;103297.06;;;10.39;100.00
1207;BME280;593;53.184;8.216;2023-02-12T03:57:47;103303.53;;;10.38;100.00
1207;BME280;593;53.184;8.216;2023-02-12T04:00:18;103297.44;;;10.43;100.00
1207;BME280;593;53.184;8.216;2023-02-12T04:02:45;103300.78;;;10.45;100.00
1207;BME280;593;53.184;8.216;2023-02-12T04:05:24;103303.97;;;10.42;100.00
1207;BME280;593;53.184;8.216;2023-02-12T04:07:51;103295.78;;;10.42;100.00
1207;BME280;593;53.184;8.216;2023-02-12T04:10:21;103301.84;;;10.44;100.00
1207;BME280;593;53.184;8.216;2023-02-12T04:18:24;103303.31;;;10.46;100.00
1207;BME280;593;53.184;8.216;2023-02-12T04:21:00;103288.66;;;10.41;100.00
1207;BME280;593;53.184;8.216;2023-02-12T04:23:43;103309.13;;;10.50;100.00
1207;BME280;593;53.184;8.216;2023-02-12T04:27:02;103285.75;;;10.36;100.00
1207;BME280;593;53.184;8.216;2023-02-12T04:29:27;103301.47;;;10.34;100.00
1207;BME280;593;53.184;8.216;2023-02-12T04:32:08;103315.47;;;10.37;100.00
1207;BME280;593;53.184;8.216;2023-02-12T04:34:55;103316.56;;;10.29;100.00
1207;BME280;593;53.184;8.216;2023-02-12T04:37:44;103311.94;;;10.30;100.00
1207;BME280;593;53.184;8.216;2023-02-12T04:40:14;103312.16;;;10.28;100.00
1207;BME280;593;53.184;8.216;2023-02-12T04:42:42;103322.19;;;10.28;100.00
1207;BME280;593;53.184;8.216;2023-02-12T04:45:10;103319.47;;;10.28;100.00
1207;BME280;593;53.184;8.216;2023-02-12T04:47:36;103320.94;;;10.30;100.00
1207;BME280;593;53.184;8.216;2023-02-12T04:50:02;103320.31;;;10.28;100.00
1207;BME280;593;53.184;8.216;2023-02-12T04:52:27;103313.84;;;10.29;100.00
1207;BME280;593;53.184;8.216;2023-02-12T04:54:53;103321.13;;;10.36;100.00
1207;BME280;593;53.184;8.216;2023-02-12T04:57:18;103322.34;;;10.40;100.00
1207;BME280;593;53.184;8.216;2023-02-12T04:59:43;103325.31;;;10.38;100.00
1207;BME280;593;53.184;8.216;2023-02-12T05:02:09;103332.44;;;10.39;100.00
1207;BME280;593;53.184;8.216;2023-02-12T05:04:34;103327.78;;;10.40;100.00
1207;BME280;593;53.184;8.216;2023-02-12T05:07:00;103334.91;;;10.41;100.00
1207;BME280;593;53.184;8.216;2023-02-12T05:09:26;103332.19;;;10.41;100.00
1207;BME280;593;53.184;8.216;2023-02-12T05:11:51;103325.34;;;10.25;100.00
1207;BME280;593;53.184;8.216;2023-02-12T05:14:16;103331.63;;;10.32;100.00
1207;BME280;593;53.184;8.216;2023-02-12T05:16:42;103334.72;;;10.36;100.00
1207;BME280;593;53.184;8.216;2023-02-12T05:19:07;103331.78;;;10.37;100.00
1207;BME280;593;53.184;8.216;2023-02-12T05:21:34;103316.75;;;10.28;100.00
1207;BME280;593;53.184;8.216;2023-02-12T05:24:00;103326.78;;;10.34;100.00
1207;BME280;593;53.184;8.216;2023-02-12T05:26:27;103323.22;;;10.34;100.00
1207;BME280;593;53.184;8.216;2023-02-12T05:28:52;103318.63;;;10.34;100.00
1207;BME280;593;53.184;8.216;2023-02-12T05:31:19;103318.84;;;10.32;100.00
1207;BME280;593;53.184;8.216;2023-02-12T05:33:46;103317.97;;;10.39;100.00
1207;BME280;593;53.184;8.216;2023-02-12T05:36:15;103331.34;;;10.40;100.00
1207;BME280;593;53.184;8.216;2023-02-12T05:38:41;103314.22;;;10.33;100.00
1207;BME280;593;53.184;8.216;2023-02-12T05:41:10;103305.50;;;10.24;100.00
1207;BME280;593;53.184;8.216;2023-02-12T05:43:36;103320.50;;;10.34;100.00
1207;BME280;593;53.184;8.216;2023-02-12T05:46:03;103324.47;;;10.38;100.00
1207;BME280;593;53.184;8.216;2023-02-12T05:48:29;103324.88;;;10.35;100.00
1207;BME280;593;53.184;8.216;2023-02-12T05:51:09;103328.88;;;10.39;100.00
1207;BME280;593;53.184;8.216;2023-02-12T05:53:36;103334.31;;;10.39;100.00
1207;BME280;593;53.184;8.216;2023-02-12T05:56:14;103328.44;;;10.35;100.00
1207;BME280;593;53.184;8.216;2023-02-12T05:58:42;103339.75;;;10.39;100.00
1207;BME280;593;53.184;8.216;2023-02-12T06:03:41;103341.41;;;10.40;100.00
1207;BME280;593;53.184;8.216;2023-02-12T06:06:07;103327.84;;;10.33;100.00
1207;BME280;593;53.184;8.216;2023-02-12T06:08:33;103345.63;;;10.36;100.00
1207;BME280;593;53.184;8.216;2023-02-12T06:11:00;103347.91;;;10.39;100.00
1207;BME280;593;53.184;8.216;2023-02-12T06:13:26;103337.22;;;10.37;100.00
1207;BME280;593;53.184;8.216;2023-02-12T06:15:51;103315.31;;;10.25;100.00
1207;BME280;593;53.184;8.216;2023-02-12T06:18:17;103333.03;;;10.35;100.00
1207;BME280;593;53.184;8.216;2023-02-12T06:20:42;103338.94;;;10.32;100.00
1207;BME280;593;53.184;8.216;2023-02-12T06:23:07;103350.25;;;10.28;100.00
1207;BME280;593;53.184;8.216;2023-02-12T06:25:32;103347.53;;;10.28;100.00
1207;BME280;593;53.184;8.216;2023-02-12T06:27:58;103356.50;;;10.36;100.00
1207;BME280;593;53.184;8.216;2023-02-12T06:30:23;103352.94;;;10.42;100.00
1207;BME280;593;53.184;8.216;2023-02-12T06:32:49;103348.38;;;10.29;100.00
1207;BME280;593;53.184;8.216;2023-02-12T06:35:15;103360.06;;;10.36;100.00
1207;BME280;593;53.184;8.216;2023-02-12T06:37:40;103356.91;;;10.39;100.00
1207;BME280;593;53.184;8.216;2023-02-12T06:40:06;103371.31;;;10.40;100.00
1207;BME280;593;53.184;8.216;2023-02-12T06:42:31;103372.41;;;10.39;100.00
1207;BME280;593;53.184;8.216;2023-02-12T06:44:57;103380.56;;;10.39;100.00
1207;BME280;593;53.184;8.216;2023-02-12T06:47:22;103374.88;;;10.40;100.00
1207;BME280;593;53.184;8.216;2023-02-12T06:49:47;103378.03;;;10.37;100.00
1207;BME280;593;53.184;8.216;2023-02-12T06:52:12;103396.25;;;10.37;100.00
1207;BME280;593;53.184;8.216;2023-02-12T06:54:38;103379.75;;;10.32;100.00
1207;BME280;593;53.184;8.216;2023-02-12T06:57:03;103392.06;;;10.41;100.00
1207;BME280;593;53.184;8.216;2023-02-12T06:59:29;103393.94;;;10.40;100.00
1207;BME280;593;53.184;8.216;2023-02-12T07:01:54;103394.56;;;10.42;100.00
1207;BME280;593;53.184;8.216;2023-02-12T07:04:19;103402.94;;;10.41;100.00
1207;BME280;593;53.184;8.216;2023-02-12T07:06:45;103403.56;;;10.43;100.00
1207;BME280;593;53.184;8.216;2023-02-12T07:09:11;103400.22;;;10.41;100.00
1207;BME280;593;53.184;8.216;2023-02-12T07:11:36;103400.44;;;10.39;100.00
1207;BME280;593;53.184;8.216;2023-02-12T07:14:02;103405.03;;;10.39;100.00
1207;BME280;593;53.184;8.216;2023-02-12T07:16:27;103403.97;;;10.40;100.00
1207;BME280;593;53.184;8.216;2023-02-12T07:18:52;103405.03;;;10.39;100.00
1207;BME280;593;53.184;8.216;2023-02-12T07:21:19;103407.97;;;10.37;100.00
1207;BME280;593;53.184;8.216;2023-02-12T07:23:47;103413.22;;;10.32;100.00
1207;BME280;593;53.184;8.216;2023-02-12T07:26:13;103418.69;;;10.32;100.00
1207;BME280;593;53.184;8.216;2023-02-12T07:28:39;103412.81;;;10.28;100.00
1207;BME280;593;53.184;8.216;2023-02-12T07:31:10;103412.41;;;10.32;100.00
1207;BME280;593;53.184;8.216;2023-02-12T07:33:36;103419.28;;;10.34;100.00
1207;BME280;593;53.184;8.216;2023-02-12T07:36:04;103424.94;;;10.32;100.00
1207;BME280;593;53.184;8.216;2023-02-12T07:38:29;103424.50;;;10.36;100.00
1207;BME280;593;53.184;8.216;2023-02-12T07:40:55;103427.00;;;10.37;100.00
1207;BME280;593;53.184;8.216;2023-02-12T07:43:23;103429.94;;;10.36;100.00
1207;BME280;593;53.184;8.216;2023-02-12T07:45:48;103432.28;;;10.32;100.00
1207;BME280;593;53.184;8.216;2023-02-12T07:48:14;103429.09;;;10.35;100.00
1207;BME280;593;53.184;8.216;2023-02-12T07:50:39;103436.44;;;10.35;100.00
1207;BME280;593;53.184;8.216;2023-02-12T07:53:04;103441.06;;;10.34;100.00
1207;BME280;593;53.184;8.216;2023-02-12T07:55:30;103443.31;;;10.37;100.00
1207;BME280;593;53.184;8.216;2023-02-12T07:57:55;103448.16;;;10.35;100.00
1207;BME280;593;53.184;8.216;2023-02-12T08:00:21;103444.59;;;10.41;100.00
1207;BME280;593;53.184;8.216;2023-02-12T08:02:51;103442.06;;;10.46;100.00
1207;BME280;593;53.184;8.216;2023-02-12T08:05:17;103448.78;;;10.44;100.00
1207;BME280;593;53.184;8.216;2023-02-12T08:07:42;103443.53;;;10.49;100.00
1207;BME280;593;53.184;8.216;2023-02-12T08:10:08;103453.56;;;10.48;100.00
1207;BME280;593;53.184;8.216;2023-02-12T08:12:33;103455.06;;;10.44;100.00
1207;BME280;593;53.184;8.216;2023-02-12T08:14:59;103451.28;;;10.45;100.00
1207;BME280;593;53.184;8.216;2023-02-12T08:17:24;103455.44;;;10.48;100.00
1207;BME280;593;53.184;8.216;2023-02-12T08:19:49;103454.00;;;10.52;100.00
1207;BME280;593;53.184;8.216;2023-02-12T08:22:15;103452.31;;;10.51;100.00
1207;BME280;593;53.184;8.216;2023-02-12T08:24:40;103454.00;;;10.52;100.00
1207;BME280;593;53.184;8.216;2023-02-12T08:27:06;103452.72;;;10.48;100.00
1207;BME280;593;53.184;8.216;2023-02-12T08:29:32;103452.72;;;10.48;100.00
1207;BME280;593;53.184;8.216;2023-02-12T08:32:02;103453.78;;;10.47;100.00
1207;BME280;593;53.184;8.216;2023-02-12T08:34:32;103455.03;;;10.51;100.00
1207;BME280;593;53.184;8.216;2023-02-12T08:36:58;103456.28;;;10.48;100.00
1207;BME280;593;53.184;8.216;2023-02-12T08:39:26;103452.53;;;10.49;100.00
1207;BME280;593;53.184;8.216;2023-02-12T08:41:56;103460.88;;;10.48;100.00
1207;BME280;593;53.184;8.216;2023-02-12T08:44:22;103457.75;;;10.51;100.00
1207;BME280;593;53.184;8.216;2023-02-12T08:46:50;103465.06;;;10.50;100.00
1207;BME280;593;53.184;8.216;2023-02-12T08:49:18;103461.09;;;10.53;100.00
1207;BME280;593;53.184;8.216;2023-02-12T08:51:46;103460.25;;;10.59;100.00
1207;BME280;593;53.184;8.216;2023-02-12T08:54:16;103459.19;;;10.60;100.00
1207;BME280;593;53.184;8.216;2023-02-12T08:56:42;103469.88;;;10.61;100.00
1207;BME280;593;53.184;8.216;2023-02-12T08:59:10;103468.38;;;10.65;100.00
1207;BME280;593;53.184;8.216;2023-02-12T09:01:37;103467.31;;;10.73;100.00
1207;BME280;593;53.184;8.216;2023-02-12T09:04:04;103463.38;;;10.62;100.00
1207;BME280;593;53.184;8.216;2023-02-12T09:06:32;103476.09;;;10.75;100.00
1207;BME280;593;53.184;8.216;2023-02-12T09:08:57;103470.47;;;10.70;100.00
1207;BME280;593;53.184;8.216;2023-02-12T09:11:28;103474.03;;;10.77;100.00
1207;BME280;593;53.184;8.216;2023-02-12T09:13:58;103471.31;;;10.70;100.00
1207;BME280;593;53.184;8.216;2023-02-12T09:16:26;103475.72;;;10.71;100.00
1207;BME280;593;53.184;8.216;2023-02-12T09:18:52;103477.34;;;10.72;100.00
1207;BME280;593;53.184;8.216;2023-02-12T09:21:19;103481.16;;;10.71;100.00
1207;BME280;593;53.184;8.216;2023-02-12T09:23:45;103480.53;;;10.69;100.00
1207;BME280;593;53.184;8.216;2023-02-12T09:26:14;103483.22;;;10.76;100.00
1207;BME280;593;53.184;8.216;2023-02-12T09:28:40;103488.06;;;10.74;100.00
1207;BME280;593;53.184;8.216;2023-02-12T09:31:10;103482.41;;;10.69;100.00
1207;BME280;593;53.184;8.216;2023-02-12T09:33:36;103487.44;;;10.72;100.00
1207;BME280;593;53.184;8.216;2023-02-12T09:36:07;103483.44;;;10.74;100.00
1207;BME280;593;53.184;8.216;2023-02-12T09:38:33;103480.91;;;10.79;100.00
1207;BME280;593;53.184;8.216;2023-02-12T09:43:42;103490.78;;;10.74;100.00
1207;BME280;593;53.184;8.216;2023-02-12T09:46:41;103495.59;;;10.72;100.00
1207;BME280;593;53.184;8.216;2023-02-12T09:49:09;103497.69;;;10.76;100.00
1207;BME280;593;53.184;8.216;2023-02-12T09:51:37;103503.09;;;10.83;100.00
1207;BME280;593;53.184;8.216;2023-02-12T09:54:09;103501.22;;;10.83;100.00
1207;BME280;593;53.184;8.216;2023-02-12T09:56:37;103498.09;;;10.73;100.00
1207;BME280;593;53.184;8.216;2023-02-12T09:59:07;103504.81;;;10.71;100.00
1207;BME280;593;53.184;8.216;2023-02-12T10:01:33;103505.84;;;10.76;100.00
1207;BME280;593;53.184;8.216;2023-02-12T10:03:59;103506.88;;;10.82;100.00
1207;BME280;593;53.184;8.216;2023-02-12T10:06:27;103513.38;;;10.81;100.00
1207;BME280;593;53.184;8.216;2023-02-12T10:11:59;103515.66;;;10.84;100.00
1207;BME280;593;53.184;8.216;2023-02-12T10:14:39;103520.69;;;10.87;100.00
1207;BME280;593;53.184;8.216;2023-02-12T10:25:28;103526.13;;;10.87;100.00
1207;BME280;593;53.184;8.216;2023-02-12T10:27:59;103509.81;;;10.80;100.00
1207;BME280;593;53.184;8.216;2023-02-12T10:33:05;103529.25;;;10.90;100.00
1207;BME280;593;53.184;8.216;2023-02-12T10:35:32;103522.78;;;10.91;100.00
1207;BME280;593;53.184;8.216;2023-02-12T10:38:19;103525.88;;;10.95;100.00
1207;BME280;593;53.184;8.216;2023-02-12T10:40:45;103529.69;;;10.94;100.00
1207;BME280;593;53.184;8.216;2023-02-12T10:43:12;103532.59;;;10.92;100.00
1207;BME280;593;53.184;8.216;2023-02-12T10:45:39;103537.84;;;10.94;100.00
1207;BME280;593;53.184;8.216;2023-02-12T10:48:35;103520.88;;;10.92;100.00
1207;BME280;593;53.184;8.216;2023-02-12T10:53:44;103526.72;;;11.02;100.00
1207;BME280;593;53.184;8.216;2023-02-12T10:56:23;103522.31;;;11.01;100.00
1207;BME280;593;53.184;8.216;2023-02-12T11:01:34;103519.16;;;11.04;100.00
1207;BME280;593;53.184;8.216;2023-02-12T11:04:20;103525.84;;;11.08;100.00
1207;BME280;593;53.184;8.216;2023-02-12T11:07:00;103522.09;;;11.09;100.00
1207;BME280;593;53.184;8.216;2023-02-12T11:09:46;103515.13;;;11.13;100.00
1207;BME280;593;53.184;8.216;2023-02-12T11:12:29;103514.28;;;11.13;100.00
1207;BME280;593;53.184;8.216;2023-02-12T11:15:00;103506.53;;;11.16;100.00
1207;BME280;593;53.184;8.216;2023-02-12T11:17:38;103496.91;;;11.14;100.00
1207;BME280;593;53.184;8.216;2023-02-12T11:22:33;103509.03;;;11.18;100.00
1207;BME280;593;53.184;8.216;2023-02-12T11:25:02;103505.88;;;11.21;100.00
1207;BME280;593;53.184;8.216;2023-02-12T11:27:32;103517.41;;;11.23;100.00
1207;BME280;593;53.184;8.216;2023-02-12T11:30:12;103511.75;;;11.24;100.00
1207;BME280;593;53.184;8.216;2023-02-12T11:32:38;103511.28;;;11.27;100.00
1207;BME280;593;53.184;8.216;2023-02-12T11:37:41;103507.72;;;11.33;100.00
1207;BME280;593;53.184;8.216;2023-02-12T11:40:15;103504.38;;;11.25;100.00
1207;BME280;593;53.184;8.216;2023-02-12T11:42:47;103495.19;;;11.26;100.00
1207;BME280;593;53.184;8.216;2023-02-12T11:45:17;103493.28;;;11.26;100.00
1207;BME280;593;53.184;8.216;2023-02-12T11:47:43;103483.63;;;11.30;100.00
1207;BME280;593;53.184;8.216;2023-02-12T11:50:24;103489.84;;;11.37;100.00
1207;BME280;593;53.184;8.216;2023-02-12T11:52:51;103493.84;;;11.41;100.00
1207;BME280;593;53.184;8.216;2023-02-12T11:55:20;103491.97;;;11.35;100.00
1207;BME280;593;53.184;8.216;2023-02-12T11:58:00;103486.31;;;11.37;100.00
1207;BME280;593;53.184;8.216;2023-02-12T12:00:38;103480.03;;;11.36;100.00
1207;BME280;593;53.184;8.216;2023-02-12T12:05:50;103486.72;;;11.40;100.00
1207;BME280;593;53.184;8.216;2023-02-12T12:08:47;103490.28;;;11.41;100.00
1207;BME280;593;53.184;8.216;2023-02-12T12:11:12;103485.44;;;11.43;100.00
1207;BME280;593;53.184;8.216;2023-02-12T12:13:56;103481.88;;;11.42;100.00
1207;BME280;593;53.184;8.216;2023-02-12T12:16:29;103482.03;;;11.47;100.00
1207;BME280;593;53.184;8.216;2023-02-12T12:19:27;103482.50;;;11.44;100.00
1207;BME280;593;53.184;8.216;2023-02-12T12:25:12;103476.16;;;11.50;100.00
1207;BME280;593;53.184;8.216;2023-02-12T12:33:21;103463.56;;;11.56;100.00
1207;BME280;593;53.184;8.216;2023-02-12T12:43:53;103466.88;;;11.65;100.00
1207;BME280;593;53.184;8.216;2023-02-12T12:46:33;103463.97;;;11.59;100.00
1207;BME280;593;53.184;8.216;2023-02-12T12:52:47;103464.78;;;11.60;100.00
1207;BME280;593;53.184;8.216;2023-02-12T12:54:54;103458.50;;;11.59;100.00
1207;BME280;593;53.184;8.216;2023-02-12T12:59:59;103454.28;;;11.64;100.00
1207;BME280;593;53.184;8.216;2023-02-12T13:10:55;103448.41;;;11.60;100.00
1207;BME280;593;53.184;8.216;2023-02-12T13:13:43;103442.59;;;11.56;100.00
1207;BME280;593;53.184;8.216;2023-02-12T13:16:29;103426.66;;;11.53;100.00
1207;BME280;593;53.184;8.216;2023-02-12T13:21:54;103437.50;;;11.60;100.00
1207;BME280;593;53.184;8.216;2023-02-12T13:24:26;103440.28;;;11.53;100.00
1207;BME280;593;53.184;8.216;2023-02-12T13:29:22;103434.19;;;11.58;100.00
1207;BME280;593;53.184;8.216;2023-02-12T13:34:37;103419.81;;;11.44;100.00
1207;BME280;593;53.184;8.216;2023-02-12T13:37:05;103430.66;;;11.51;100.00
1207;BME280;593;53.184;8.216;2023-02-12T13:39:36;103423.94;;;11.53;100.00
1207;BME280;593;53.184;8.216;2023-02-12T13:52:22;103422.53;;;11.76;100.00
1207;BME280;593;53.184;8.216;2023-02-12T13:55:17;103432.22;;;11.72;100.00
1207;BME280;593;53.184;8.216;2023-02-12T13:57:38;103426.34;;;11.75;100.00
1207;BME280;593;53.184;8.216;2023-02-12T14:00:03;103424.25;;;11.70;100.00
1207;BME280;593;53.184;8.216;2023-02-12T14:05:02;103425.88;;;11.78;100.00
1207;BME280;593;53.184;8.216;2023-02-12T14:07:45;103425.66;;;11.79;100.00
1207;BME280;593;53.184;8.216;2023-02-12T14:10:36;103430.09;;;11.74;100.00
1207;BME280;593;53.184;8.216;2023-02-12T14:15:44;103428.66;;;11.71;100.00
1207;BME280;593;53.184;8.216;2023-02-12T14:18:27;103427.38;;;11.74;100.00
1207;BME280;593;53.184;8.216;2023-02-12T14:23:34;103431.78;;;11.75;100.00
1207;BME280;593;53.184;8.216;2023-02-12T14:26:10;103433.06;;;11.72;100.00
1207;BME280;593;53.184;8.216;2023-02-12T14:28:52;103432.59;;;11.75;100.00
1207;BME280;593;53.184;8.216;2023-02-12T14:33:46;103427.38;;;11.74;100.00
1207;BME280;593;53.184;8.216;2023-02-12T14:41:25;103425.50;;;11.74;100.00
1207;BME280;593;53.184;8.216;2023-02-12T14:49:18;103423.44;;;11.70;100.00
1207;BME280;593;53.184;8.216;2023-02-12T14:51:59;103430.09;;;11.74;100.00
1207;BME280;593;53.184;8.216;2023-02-12T14:54:38;103417.78;;;11.65;100.00
1207;BME280;593;53.184;8.216;2023-02-12T14:59:47;103437.06;;;11.70;100.00
1207;BME280;593;53.184;8.216;2023-02-12T15:02:23;103431.81;;;11.68;100.00
1207;BME280;593;53.184;8.216;2023-02-12T15:04:49;103427.78;;;11.77;100.00
1207;BME280;593;53.184;8.216;2023-02-12T15:07:21;103428.22;;;11.74;100.00
1207;BME280;593;53.184;8.216;2023-02-12T15:10:21;103432.16;;;11.78;100.00
1207;BME280;593;53.184;8.216;2023-02-12T15:12:56;103426.78;;;11.65;100.00
1207;BME280;593;53.184;8.216;2023-02-12T15:15:28;103432.47;;;11.64;100.00
1207;BME280;593;53.184;8.216;2023-02-12T15:18:01;103424.91;;;11.66;100.00
1207;BME280;593;53.184;8.216;2023-02-12T15:20:44;103427.81;;;11.71;100.00
1207;BME280;593;53.184;8.216;2023-02-12T15:25:56;103397.78;;;11.46;100.00
1207;BME280;593;53.184;8.216;2023-02-12T15:28:25;103430.56;;;11.71;100.00
1207;BME280;593;53.184;8.216;2023-02-12T15:30:58;103426.97;;;11.70;100.00
1207;BME280;593;53.184;8.216;2023-02-12T15:33:31;103407.31;;;11.62;100.00
1207;BME280;593;53.184;8.216;2023-02-12T15:35:57;103416.31;;;11.69;100.00
1207;BME280;593;53.184;8.216;2023-02-12T15:38:33;103419.81;;;11.76;100.00
1207;BME280;593;53.184;8.216;2023-02-12T15:41:00;103418.53;;;11.78;100.00
1207;BME280;593;53.184;8.216;2023-02-12T15:43:28;103426.09;;;11.76;100.00
1207;BME280;593;53.184;8.216;2023-02-12T15:45:56;103414.22;;;11.64;100.00